sensor_id;sensor_type;location;lat;lon;timestamp;pressure;altitude;pressure_sealevel;temperature;humidity
45253;BME280;63171;50.520;30.486;2023-04-22T00:00:10;99409.13;;;11.71;70.67
45253;BME280;63171;50.520;30.486;2023-04-22T00:04:43;99414.97;;;11.64;70.26
45253;BME280;63171;50.520;30.486;2023-04-22T00:05:34;99414.97;;;11.64;70.03
45253;BME280;63171;50.520;30.486;2023-04-22T00:06:26;99410.31;;;11.67;70.11
45253;BME280;63171;50.520;30.486;2023-04-22T00:07:16;99415.34;;;11.70;70.19
45253;BME280;63171;50.520;30.486;2023-04-22T00:08:07;99408.41;;;11.69;70.23
45253;BME280;63171;50.520;30.486;2023-04-22T00:08:57;99410.88;;;11.60;70.06
45253;BME280;63171;50.520;30.486;2023-04-22T00:09:48;99415.81;;;11.64;69.93
45253;BME280;63171;50.520;30.486;2023-04-22T00:10:37;99408.59;;;11.55;69.66
45253;BME280;63171;50.520;30.486;2023-04-22T00:11:28;99409.66;;;11.52;69.44
45253;BME280;63171;50.520;30.486;2023-04-22T00:12:18;99409.22;;;11.59;69.36
45253;BME280;63171;50.520;30.486;2023-04-22T00:13:09;99406.97;;;11.65;69.46
45253;BME280;63171;50.520;30.486;2023-04-22T00:13:59;99404.34;;;11.65;69.48
45253;BME280;63171;50.520;30.486;2023-04-22T00:14:51;99406.25;;;11.63;69.30
45253;BME280;63171;50.520;30.486;2023-04-22T00:15:41;99412.28;;;11.52;69.18
45253;BME280;63171;50.520;30.486;2023-04-22T00:16:32;99420.66;;;11.58;68.99
45253;BME280;63171;50.520;30.486;2023-04-22T00:17:21;99412.13;;;11.43;68.60
45253;BME280;63171;50.520;30.486;2023-04-22T00:18:13;99414.63;;;11.44;68.67
45253;BME280;63171;50.520;30.486;2023-04-22T00:19:03;99410.13;;;11.22;68.26
45253;BME280;63171;50.520;30.486;2023-04-22T00:19:54;99418.53;;;11.15;68.34
45253;BME280;63171;50.520;30.486;2023-04-22T00:20:44;99412.44;;;11.14;68.02
45253;BME280;63171;50.520;30.486;2023-04-22T00:21:36;99418.97;;;11.09;67.99
45253;BME280;63171;50.520;30.486;2023-04-22T00:22:26;99413.25;;;10.91;67.77
45253;BME280;63171;50.520;30.486;2023-04-22T00:23:17;99418.69;;;10.88;67.59
45253;BME280;63171;50.520;30.486;2023-04-22T00:24:07;99419.22;;;10.80;67.61
45253;BME280;63171;50.520;30.486;2023-04-22T00:24:58;99421.44;;;10.74;67.38
45253;BME280;63171;50.520;30.486;2023-04-22T00:25:48;99418.41;;;10.67;67.55
45253;BME280;63171;50.520;30.486;2023-04-22T00:26:39;99413.38;;;10.77;67.60
45253;BME280;63171;50.520;30.486;2023-04-22T00:27:29;99427.53;;;10.74;67.49
45253;BME280;63171;50.520;30.486;2023-04-22T00:28:20;99416.91;;;10.88;67.65
45253;BME280;63171;50.520;30.486;2023-04-22T00:29:09;99419.06;;;10.71;67.47
45253;BME280;63171;50.520;30.486;2023-04-22T00:30:02;99417.91;;;10.62;67.28
45253;BME280;63171;50.520;30.486;2023-04-22T00:30:52;99415.84;;;10.42;67.28
45253;BME280;63171;50.520;30.486;2023-04-22T00:31:43;99425.44;;;10.66;67.92
45253;BME280;63171;50.520;30.486;2023-04-22T00:32:33;99416.44;;;10.71;67.42
45253;BME280;63171;50.520;30.486;2023-04-22T00:33:24;99420.91;;;10.81;67.58
45253;BME280;63171;50.520;30.486;2023-04-22T00:34:14;99419.34;;;10.79;67.52
45253;BME280;63171;50.520;30.486;2023-04-22T00:35:06;99421.13;;;10.65;67.34
45253;BME280;63171;50.520;30.486;2023-04-22T00:35:56;99428.25;;;10.76;67.42
45253;BME280;63171;50.520;30.486;2023-04-22T00:36:47;99420.19;;;10.66;67.19
45253;BME280;63171;50.520;30.486;2023-04-22T00:37:37;99429.44;;;10.47;66.90
45253;BME280;63171;50.520;30.486;2023-04-22T00:38:29;99429.75;;;10.29;66.93
45253;BME280;63171;50.520;30.486;2023-04-22T00:39:19;99430.50;;;10.57;67.19
45253;BME280;63171;50.520;30.486;2023-04-22T00:40:10;99421.25;;;10.39;66.95
45253;BME280;63171;50.520;30.486;2023-04-22T00:41:00;99429.66;;;10.44;66.84
45253;BME280;63171;50.520;30.486;2023-04-22T00:41:52;99427.16;;;10.42;67.03
45253;BME280;63171;50.520;30.486;2023-04-22T00:42:42;99429.66;;;10.56;67.10
45253;BME280;63171;50.520;30.486;2023-04-22T00:43:33;99426.09;;;10.57;67.15
45253;BME280;63171;50.520;30.486;2023-04-22T00:44:23;99430.59;;;10.55;67.12
45253;BME280;63171;50.520;30.486;2023-04-22T00:45:18;99432.66;;;10.63;67.17
45253;BME280;63171;50.520;30.486;2023-04-22T00:46:08;99429.94;;;10.77;67.37
45253;BME280;63171;50.520;30.486;2023-04-22T00:46:59;99434.63;;;10.85;67.36
45253;BME280;63171;50.520;30.486;2023-04-22T00:47:50;99438.72;;;10.89;67.23
45253;BME280;63171;50.520;30.486;2023-04-22T00:48:42;99430.53;;;10.81;66.92
45253;BME280;63171;50.520;30.486;2023-04-22T00:49:33;99431.81;;;10.88;66.92
45253;BME280;63171;50.520;30.486;2023-04-22T00:50:25;99431.56;;;10.91;66.99
45253;BME280;63171;50.520;30.486;2023-04-22T00:51:15;99426.69;;;10.74;66.41
45253;BME280;63171;50.520;30.486;2023-04-22T00:52:05;99425.75;;;10.75;66.33
45253;BME280;63171;50.520;30.486;2023-04-22T00:52:55;99431.59;;;10.78;66.42
45253;BME280;63171;50.520;30.486;2023-04-22T00:53:46;99427.72;;;10.84;66.52
45253;BME280;63171;50.520;30.486;2023-04-22T00:54:36;99425.84;;;10.73;66.07
45253;BME280;63171;50.520;30.486;2023-04-22T00:55:27;99427.03;;;10.69;65.94
45253;BME280;63171;50.520;30.486;2023-04-22T00:56:18;99425.66;;;10.51;65.77
45253;BME280;63171;50.520;30.486;2023-04-22T00:57:10;99424.47;;;10.04;65.33
45253;BME280;63171;50.520;30.486;2023-04-22T00:58:02;99424.88;;;10.11;65.12
45253;BME280;63171;50.520;30.486;2023-04-22T00:58:53;99419.25;;;10.17;65.33
45253;BME280;63171;50.520;30.486;2023-04-22T00:59:44;99420.38;;;10.13;65.19
45253;BME280;63171;50.520;30.486;2023-04-22T01:00:36;99419.19;;;10.31;65.58
45253;BME280;63171;50.520;30.486;2023-04-22T01:01:26;99420.69;;;10.08;64.89
45253;BME280;63171;50.520;30.486;2023-04-22T01:02:18;99420.06;;;10.04;65.14
45253;BME280;63171;50.520;30.486;2023-04-22T01:03:08;99418.72;;;10.12;64.89
45253;BME280;63171;50.520;30.486;2023-04-22T01:03:59;99416.75;;;10.15;65.06
45253;BME280;63171;50.520;30.486;2023-04-22T01:04:50;99421.59;;;10.21;65.08
45253;BME280;63171;50.520;30.486;2023-04-22T01:05:42;99420.19;;;10.16;64.48
45253;BME280;63171;50.520;30.486;2023-04-22T01:06:34;99426.50;;;10.26;64.93
45253;BME280;63171;50.520;30.486;2023-04-22T01:07:26;99420.75;;;10.33;64.99
45253;BME280;63171;50.520;30.486;2023-04-22T01:08:16;99420.81;;;10.19;64.53
45253;BME280;63171;50.520;30.486;2023-04-22T01:09:06;99422.56;;;9.93;64.26
45253;BME280;63171;50.520;30.486;2023-04-22T01:09:58;99423.16;;;9.84;64.20
45253;BME280;63171;50.520;30.486;2023-04-22T01:10:49;99419.47;;;9.74;64.11
45253;BME280;63171;50.520;30.486;2023-04-22T01:11:39;99425.41;;;9.90;64.24
45253;BME280;63171;50.520;30.486;2023-04-22T01:12:31;99422.69;;;10.04;64.36
45253;BME280;63171;50.520;30.486;2023-04-22T01:13:20;99428.59;;;10.33;64.51
45253;BME280;63171;50.520;30.486;2023-04-22T01:14:13;99430.34;;;10.20;64.33
45253;BME280;63171;50.520;30.486;2023-04-22T01:15:04;99428.72;;;10.32;64.25
45253;BME280;63171;50.520;30.486;2023-04-22T01:15:56;99428.81;;;10.56;64.34
45253;BME280;63171;50.520;30.486;2023-04-22T01:16:46;99427.44;;;10.50;64.25
45253;BME280;63171;50.520;30.486;2023-04-22T01:17:37;99426.09;;;10.45;64.10
45253;BME280;63171;50.520;30.486;2023-04-22T01:18:28;99434.44;;;10.24;63.86
45253;BME280;63171;50.520;30.486;2023-04-22T01:19:18;99425.56;;;10.27;63.62
45253;BME280;63171;50.520;30.486;2023-04-22T01:20:09;99419.81;;;10.34;63.54
45253;BME280;63171;50.520;30.486;2023-04-22T01:21:00;99425.38;;;10.30;63.32
45253;BME280;63171;50.520;30.486;2023-04-22T01:21:50;99422.50;;;10.20;63.05
45253;BME280;63171;50.520;30.486;2023-04-22T01:22:44;99430.44;;;10.06;62.88
45253;BME280;63171;50.520;30.486;2023-04-22T01:23:35;99424.88;;;10.11;62.67
45253;BME280;63171;50.520;30.486;2023-04-22T01:24:26;99430.88;;;10.25;62.95
45253;BME280;63171;50.520;30.486;2023-04-22T01:25:16;99424.31;;;10.32;62.90
45253;BME280;63171;50.520;30.486;2023-04-22T01:26:07;99425.38;;;10.55;62.88
45253;BME280;63171;50.520;30.486;2023-04-22T01:26:57;99422.75;;;10.43;62.68
45253;BME280;63171;50.520;30.486;2023-04-22T01:27:48;99429.66;;;10.44;62.49
45253;BME280;63171;50.520;30.486;2023-04-22T01:28:38;99432.06;;;10.47;62.45
45253;BME280;63171;50.520;30.486;2023-04-22T01:29:29;99433.63;;;10.49;62.34
45253;BME280;63171;50.520;30.486;2023-04-22T01:30:20;99429.22;;;10.50;62.34
45253;BME280;63171;50.520;30.486;2023-04-22T01:31:09;99431.63;;;10.65;62.30
45253;BME280;63171;50.520;30.486;2023-04-22T01:32:00;99428.91;;;10.54;61.99
45253;BME280;63171;50.520;30.486;2023-04-22T01:32:52;99428.16;;;10.52;61.87
45253;BME280;63171;50.520;30.486;2023-04-22T01:33:44;99427.88;;;10.31;61.47
45253;BME280;63171;50.520;30.486;2023-04-22T01:34:34;99427.09;;;10.17;61.32
45253;BME280;63171;50.520;30.486;2023-04-22T01:35:25;99427.41;;;10.12;61.19
45253;BME280;63171;50.520;30.486;2023-04-22T01:36:16;99433.19;;;10.17;61.21
45253;BME280;63171;50.520;30.486;2023-04-22T01:37:07;99435.28;;;10.25;61.22
45253;BME280;63171;50.520;30.486;2023-04-22T01:37:57;99436.84;;;10.27;60.95
45253;BME280;63171;50.520;30.486;2023-04-22T01:38:50;99428.59;;;10.33;60.99
45253;BME280;63171;50.520;30.486;2023-04-22T01:39:40;99432.91;;;10.34;60.95
45253;BME280;63171;50.520;30.486;2023-04-22T01:40:31;99427.28;;;10.14;60.57
45253;BME280;63171;50.520;30.486;2023-04-22T01:41:21;99435.34;;;10.11;60.61
45253;BME280;63171;50.520;30.486;2023-04-22T01:42:12;99436.75;;;10.16;60.52
45253;BME280;63171;50.520;30.486;2023-04-22T01:43:02;99433.06;;;10.06;60.42
45253;BME280;63171;50.520;30.486;2023-04-22T01:43:54;99429.06;;;10.13;60.61
45253;BME280;63171;50.520;30.486;2023-04-22T01:44:46;99431.28;;;10.19;60.43
45253;BME280;63171;50.520;30.486;2023-04-22T01:45:37;99428.19;;;9.87;60.00
45253;BME280;63171;50.520;30.486;2023-04-22T01:46:27;99446.16;;;9.66;59.89
45253;BME280;63171;50.520;30.486;2023-04-22T01:47:18;99439.09;;;9.54;59.95
45253;BME280;63171;50.520;30.486;2023-04-22T01:48:08;99439.75;;;9.70;59.96
45253;BME280;63171;50.520;30.486;2023-04-22T01:48:59;99433.41;;;9.87;60.05
45253;BME280;63171;50.520;30.486;2023-04-22T01:49:49;99435.44;;;9.96;60.31
45253;BME280;63171;50.520;30.486;2023-04-22T01:50:42;99437.25;;;10.08;60.24
45253;BME280;63171;50.520;30.486;2023-04-22T01:51:36;99430.94;;;9.98;59.99
45253;BME280;63171;50.520;30.486;2023-04-22T01:52:27;99433.25;;;10.03;60.07
45253;BME280;63171;50.520;30.486;2023-04-22T01:53:17;99438.38;;;10.04;59.92
45253;BME280;63171;50.520;30.486;2023-04-22T01:54:09;99436.97;;;9.86;59.80
45253;BME280;63171;50.520;30.486;2023-04-22T01:54:59;99438.56;;;9.89;59.90
45253;BME280;63171;50.520;30.486;2023-04-22T01:55:51;99439.50;;;10.00;59.91
45253;BME280;63171;50.520;30.486;2023-04-22T01:56:48;99442.44;;;9.96;59.97
45253;BME280;63171;50.520;30.486;2023-04-22T01:57:38;99437.72;;;10.01;59.84
45253;BME280;63171;50.520;30.486;2023-04-22T01:58:29;99438.69;;;10.00;59.69
45253;BME280;63171;50.520;30.486;2023-04-22T01:59:20;99443.38;;;9.95;59.56
45253;BME280;63171;50.520;30.486;2023-04-22T02:00:13;99438.25;;;9.93;59.53
45253;BME280;63171;50.520;30.486;2023-04-22T02:01:02;99433.88;;;10.06;59.67
45253;BME280;63171;50.520;30.486;2023-04-22T02:01:53;99439.22;;;10.05;59.54
45253;BME280;63171;50.520;30.486;2023-04-22T02:02:43;99443.19;;;9.98;59.63
45253;BME280;63171;50.520;30.486;2023-04-22T02:03:34;99446.09;;;9.93;59.44
45253;BME280;63171;50.520;30.486;2023-04-22T02:04:24;99443.28;;;9.96;59.39
45253;BME280;63171;50.520;30.486;2023-04-22T02:05:16;99444.25;;;10.08;59.48
45253;BME280;63171;50.520;30.486;2023-04-22T02:06:08;99447.44;;;10.26;59.41
45253;BME280;63171;50.520;30.486;2023-04-22T02:06:59;99439.97;;;10.20;59.39
45253;BME280;63171;50.520;30.486;2023-04-22T02:07:50;99441.34;;;10.25;59.29
45253;BME280;63171;50.520;30.486;2023-04-22T02:08:40;99441.34;;;10.25;59.30
45253;BME280;63171;50.520;30.486;2023-04-22T02:09:33;99443.34;;;10.22;59.09
45253;BME280;63171;50.520;30.486;2023-04-22T02:10:23;99445.97;;;10.22;59.13
45253;BME280;63171;50.520;30.486;2023-04-22T02:11:14;99447.38;;;10.13;58.88
45253;BME280;63171;50.520;30.486;2023-04-22T02:12:04;99443.50;;;9.93;58.54
45253;BME280;63171;50.520;30.486;2023-04-22T02:12:54;99445.28;;;9.93;58.89
45253;BME280;63171;50.520;30.486;2023-04-22T02:13:45;99445.41;;;10.04;58.78
45253;BME280;63171;50.520;30.486;2023-04-22T02:14:36;99450.22;;;10.10;58.67
45253;BME280;63171;50.520;30.486;2023-04-22T02:15:27;99446.53;;;10.13;58.76
45253;BME280;63171;50.520;30.486;2023-04-22T02:16:16;99442.13;;;10.00;58.69
45253;BME280;63171;50.520;30.486;2023-04-22T02:17:07;99447.66;;;9.83;58.39
45253;BME280;63171;50.520;30.486;2023-04-22T02:17:57;99449.28;;;9.71;58.20
45253;BME280;63171;50.520;30.486;2023-04-22T02:18:47;99448.09;;;9.90;58.75
45253;BME280;63171;50.520;30.486;2023-04-22T02:19:38;99453.53;;;9.99;58.50
45253;BME280;63171;50.520;30.486;2023-04-22T02:20:28;99449.63;;;9.80;58.44
45253;BME280;63171;50.520;30.486;2023-04-22T02:21:19;99448.38;;;9.85;58.70
45253;BME280;63171;50.520;30.486;2023-04-22T02:22:09;99449.66;;;9.92;58.54
45253;BME280;63171;50.520;30.486;2023-04-22T02:23:00;99447.50;;;10.12;58.61
45253;BME280;63171;50.520;30.486;2023-04-22T02:23:50;99452.41;;;10.03;58.60
45253;BME280;63171;50.520;30.486;2023-04-22T02:24:42;99447.34;;;10.00;58.65
45253;BME280;63171;50.520;30.486;2023-04-22T02:25:32;99448.97;;;10.16;58.60
45253;BME280;63171;50.520;30.486;2023-04-22T02:26:23;99446.44;;;10.14;58.56
45253;BME280;63171;50.520;30.486;2023-04-22T02:27:14;99449.69;;;10.05;58.59
45253;BME280;63171;50.520;30.486;2023-04-22T02:28:05;99449.91;;;10.02;58.40
45253;BME280;63171;50.520;30.486;2023-04-22T02:28:55;99445.28;;;10.05;58.40
45253;BME280;63171;50.520;30.486;2023-04-22T02:29:45;99448.31;;;9.99;58.38
45253;BME280;63171;50.520;30.486;2023-04-22T02:30:36;99449.28;;;10.11;58.36
45253;BME280;63171;50.520;30.486;2023-04-22T02:31:27;99453.53;;;9.99;58.28
45253;BME280;63171;50.520;30.486;2023-04-22T02:32:17;99458.06;;;9.70;57.87
45253;BME280;63171;50.520;30.486;2023-04-22T02:33:08;99457.97;;;9.72;57.98
45253;BME280;63171;50.520;30.486;2023-04-22T02:33:58;99457.13;;;9.71;58.22
45253;BME280;63171;50.520;30.486;2023-04-22T02:34:48;99452.25;;;9.80;58.24
45253;BME280;63171;50.520;30.486;2023-04-22T02:35:40;99455.81;;;9.78;58.10
45253;BME280;63171;50.520;30.486;2023-04-22T02:36:30;99451.72;;;9.87;58.18
45253;BME280;63171;50.520;30.486;2023-04-22T02:37:22;99457.72;;;9.89;58.21
45253;BME280;63171;50.520;30.486;2023-04-22T02:38:12;99452.09;;;10.08;58.53
45253;BME280;63171;50.520;30.486;2023-04-22T02:39:05;99452.53;;;10.02;58.07
45253;BME280;63171;50.520;30.486;2023-04-22T02:39:58;99451.75;;;10.00;58.28
45253;BME280;63171;50.520;30.486;2023-04-22T02:40:49;99449.59;;;10.06;58.34
45253;BME280;63171;50.520;30.486;2023-04-22T02:41:39;99449.88;;;9.89;58.07
45253;BME280;63171;50.520;30.486;2023-04-22T02:42:30;99449.53;;;9.81;58.28
45253;BME280;63171;50.520;30.486;2023-04-22T02:43:20;99448.28;;;9.87;58.19
45253;BME280;63171;50.520;30.486;2023-04-22T02:44:11;99451.56;;;9.90;57.97
45253;BME280;63171;50.520;30.486;2023-04-22T02:45:01;99447.69;;;9.96;58.16
45253;BME280;63171;50.520;30.486;2023-04-22T02:45:52;99448.25;;;9.74;58.04
45253;BME280;63171;50.520;30.486;2023-04-22T02:46:42;99446.81;;;9.83;57.89
45253;BME280;63171;50.520;30.486;2023-04-22T02:47:33;99449.50;;;9.68;57.83
45253;BME280;63171;50.520;30.486;2023-04-22T02:48:23;99451.63;;;9.76;57.97
45253;BME280;63171;50.520;30.486;2023-04-22T02:49:14;99451.06;;;9.71;57.88
45253;BME280;63171;50.520;30.486;2023-04-22T02:50:05;99447.66;;;9.83;58.04
45253;BME280;63171;50.520;30.486;2023-04-22T02:50:56;99445.66;;;9.87;58.01
45253;BME280;63171;50.520;30.486;2023-04-22T02:51:46;99449.19;;;9.73;57.85
45253;BME280;63171;50.520;30.486;2023-04-22T02:52:37;99446.97;;;9.67;57.83
45253;BME280;63171;50.520;30.486;2023-04-22T02:53:27;99453.88;;;9.68;57.99
45253;BME280;63171;50.520;30.486;2023-04-22T02:54:18;99448.44;;;9.71;57.84
45253;BME280;63171;50.520;30.486;2023-04-22T02:55:09;99454.09;;;9.65;57.97
45253;BME280;63171;50.520;30.486;2023-04-22T02:56:00;99451.84;;;9.59;57.96
45253;BME280;63171;50.520;30.486;2023-04-22T02:56:50;99454.41;;;9.73;57.87
45253;BME280;63171;50.520;30.486;2023-04-22T02:57:41;99448.28;;;9.87;58.06
45253;BME280;63171;50.520;30.486;2023-04-22T02:58:31;99454.75;;;9.81;58.11
45253;BME280;63171;50.520;30.486;2023-04-22T02:59:21;99450.75;;;10.02;58.15
45253;BME280;63171;50.520;30.486;2023-04-22T03:00:12;99448.38;;;9.85;58.02
45253;BME280;63171;50.520;30.486;2023-04-22T03:01:03;99456.94;;;9.74;57.93
45253;BME280;63171;50.520;30.486;2023-04-22T03:01:53;99454.41;;;9.73;57.86
45253;BME280;63171;50.520;30.486;2023-04-22T03:03:01;99446.50;;;9.87;58.11
45253;BME280;63171;50.520;30.486;2023-04-22T03:03:55;99446.63;;;9.98;58.27
45253;BME280;63171;50.520;30.486;2023-04-22T03:04:46;99456.47;;;9.95;58.04
45253;BME280;63171;50.520;30.486;2023-04-22T03:05:38;99457.41;;;9.94;58.12
45253;BME280;63171;50.520;30.486;2023-04-22T03:06:27;99453.25;;;10.04;58.24
45253;BME280;63171;50.520;30.486;2023-04-22T03:07:19;99463.91;;;9.88;58.07
45253;BME280;63171;50.520;30.486;2023-04-22T03:08:09;99460.72;;;9.83;57.90
45253;BME280;63171;50.520;30.486;2023-04-22T03:09:00;99460.94;;;9.80;57.88
45253;BME280;63171;50.520;30.486;2023-04-22T03:09:49;99460.84;;;9.82;58.00
45253;BME280;63171;50.520;30.486;2023-04-22T03:10:42;99453.00;;;9.94;58.11
45253;BME280;63171;50.520;30.486;2023-04-22T03:11:32;99449.91;;;10.02;58.05
45253;BME280;63171;50.520;30.486;2023-04-22T03:12:23;99463.91;;;9.88;58.14
45253;BME280;63171;50.520;30.486;2023-04-22T03:13:13;99459.88;;;9.83;57.90
45253;BME280;63171;50.520;30.486;2023-04-22T03:14:04;99471.50;;;9.78;57.79
45253;BME280;63171;50.520;30.486;2023-04-22T03:14:54;99468.88;;;9.78;57.87
45253;BME280;63171;50.520;30.486;2023-04-22T03:15:47;99459.81;;;9.97;58.00
45253;BME280;63171;50.520;30.486;2023-04-22T03:16:37;99464.09;;;9.98;58.08
45253;BME280;63171;50.520;30.486;2023-04-22T03:17:28;99462.56;;;10.08;58.42
45253;BME280;63171;50.520;30.486;2023-04-22T03:18:19;99464.66;;;10.03;57.94
45253;BME280;63171;50.520;30.486;2023-04-22T03:19:09;99466.97;;;10.07;58.00
45253;BME280;63171;50.520;30.486;2023-04-22T03:19:59;99460.41;;;10.27;58.17
45253;BME280;63171;50.520;30.486;2023-04-22T03:20:50;99466.91;;;10.34;58.06
45253;BME280;63171;50.520;30.486;2023-04-22T03:21:41;99467.88;;;10.33;58.04
45253;BME280;63171;50.520;30.486;2023-04-22T03:22:32;99465.13;;;10.35;58.09
45253;BME280;63171;50.520;30.486;2023-04-22T03:23:23;99471.00;;;10.39;57.89
45253;BME280;63171;50.520;30.486;2023-04-22T03:24:14;99471.44;;;10.45;58.00
45253;BME280;63171;50.520;30.486;2023-04-22T03:25:10;99468.81;;;10.45;57.91
45253;BME280;63171;50.520;30.486;2023-04-22T03:26:05;99472.16;;;10.47;57.65
45253;BME280;63171;50.520;30.486;2023-04-22T03:26:55;99471.53;;;10.44;57.74
45253;BME280;63171;50.520;30.486;2023-04-22T03:27:45;99481.19;;;10.56;57.80
45253;BME280;63171;50.520;30.486;2023-04-22T03:28:35;99469.44;;;10.49;57.66
45253;BME280;63171;50.520;30.486;2023-04-22T03:29:26;99474.69;;;10.49;57.62
45253;BME280;63171;50.520;30.486;2023-04-22T03:30:16;99467.22;;;10.68;57.74
45253;BME280;63171;50.520;30.486;2023-04-22T03:31:09;99472.69;;;10.65;57.46
45253;BME280;63171;50.520;30.486;2023-04-22T03:31:59;99480.03;;;10.60;57.41
45253;BME280;63171;50.520;30.486;2023-04-22T03:32:50;99474.91;;;10.71;57.40
45253;BME280;63171;50.520;30.486;2023-04-22T03:33:49;99473.94;;;10.85;57.49
45253;BME280;63171;50.520;30.486;2023-04-22T03:34:49;99475.94;;;10.69;57.24
45253;BME280;63171;50.520;30.486;2023-04-22T03:35:39;99479.19;;;10.47;56.94
45253;BME280;63171;50.520;30.486;2023-04-22T03:36:30;99484.41;;;10.59;57.02
45253;BME280;63171;50.520;30.486;2023-04-22T03:37:21;99479.81;;;10.76;57.14
45253;BME280;63171;50.520;30.486;2023-04-22T03:38:11;99475.69;;;10.97;57.19
45253;BME280;63171;50.520;30.486;2023-04-22T03:39:02;99477.69;;;10.81;57.05
45253;BME280;63171;50.520;30.486;2023-04-22T03:39:53;99487.53;;;10.90;57.14
45253;BME280;63171;50.520;30.486;2023-04-22T03:40:45;99492.13;;;11.12;56.97
45253;BME280;63171;50.520;30.486;2023-04-22T03:41:50;99492.75;;;11.15;57.08
45253;BME280;63171;50.520;30.486;2023-04-22T03:42:41;99490.34;;;11.12;56.79
45253;BME280;63171;50.520;30.486;2023-04-22T03:43:31;99483.97;;;11.04;56.61
45253;BME280;63171;50.520;30.486;2023-04-22T03:44:27;99483.88;;;10.92;56.48
45253;BME280;63171;50.520;30.486;2023-04-22T03:45:18;99490.16;;;10.90;56.36
45253;BME280;63171;50.520;30.486;2023-04-22T03:46:16;99488.59;;;10.87;56.32
45253;BME280;63171;50.520;30.486;2023-04-22T03:47:18;99491.72;;;11.05;56.44
45253;BME280;63171;50.520;30.486;2023-04-22T03:48:15;99491.19;;;11.13;56.10
45253;BME280;63171;50.520;30.486;2023-04-22T03:49:10;99488.75;;;11.22;56.39
45253;BME280;63171;50.520;30.486;2023-04-22T03:50:01;99493.56;;;11.29;56.26
45253;BME280;63171;50.520;30.486;2023-04-22T03:50:56;99490.59;;;11.33;56.21
45253;BME280;63171;50.520;30.486;2023-04-22T03:51:48;99496.91;;;11.31;55.94
45253;BME280;63171;50.520;30.486;2023-04-22T03:52:40;99492.72;;;11.28;55.94
45253;BME280;63171;50.520;30.486;2023-04-22T03:53:31;99495.78;;;11.22;55.79
45253;BME280;63171;50.520;30.486;2023-04-22T03:54:21;99491.22;;;11.37;55.87
45253;BME280;63171;50.520;30.486;2023-04-22T03:55:14;99493.78;;;11.25;55.71
45253;BME280;63171;50.520;30.486;2023-04-22T03:56:05;99496.28;;;11.27;55.60
45253;BME280;63171;50.520;30.486;2023-04-22T03:57:01;99502.22;;;11.42;55.63
45253;BME280;63171;50.520;30.486;2023-04-22T03:57:51;99501.59;;;11.38;55.50
45253;BME280;63171;50.520;30.486;2023-04-22T03:58:44;99500.94;;;11.47;55.57
45253;BME280;63171;50.520;30.486;2023-04-22T03:59:34;99503.19;;;11.65;55.57
45253;BME280;63171;50.520;30.486;2023-04-22T04:00:25;99503.25;;;11.76;55.41
45253;BME280;63171;50.520;30.486;2023-04-22T04:01:28;99502.16;;;11.91;55.28
45253;BME280;63171;50.520;30.486;2023-04-22T04:02:23;99502.31;;;12.01;55.41
45253;BME280;63171;50.520;30.486;2023-04-22T04:03:12;99503.13;;;11.90;55.11
45253;BME280;63171;50.520;30.486;2023-04-22T04:04:03;99500.94;;;11.84;54.93
45253;BME280;63171;50.520;30.486;2023-04-22T04:05:01;99507.63;;;11.88;55.15
45253;BME280;63171;50.520;30.486;2023-04-22T04:05:53;99502.59;;;11.85;54.74
45253;BME280;63171;50.520;30.486;2023-04-22T04:06:44;99511.13;;;11.76;54.73
45253;BME280;63171;50.520;30.486;2023-04-22T04:07:35;99511.00;;;11.90;54.66
45253;BME280;63171;50.520;30.486;2023-04-22T04:08:25;99506.41;;;12.05;54.89
45253;BME280;63171;50.520;30.486;2023-04-22T04:09:16;99514.81;;;12.21;54.74
45253;BME280;63171;50.520;30.486;2023-04-22T04:10:07;99507.41;;;12.26;54.63
45253;BME280;63171;50.520;30.486;2023-04-22T04:10:58;99513.88;;;12.33;54.54
45253;BME280;63171;50.520;30.486;2023-04-22T04:11:49;99509.78;;;12.18;54.35
45253;BME280;63171;50.520;30.486;2023-04-22T04:12:42;99514.75;;;12.10;54.25
45253;BME280;63171;50.520;30.486;2023-04-22T04:13:32;99520.16;;;12.20;54.25
45253;BME280;63171;50.520;30.486;2023-04-22T04:14:37;99521.59;;;12.24;54.17
45253;BME280;63171;50.520;30.486;2023-04-22T04:15:28;99509.09;;;12.27;53.95
45253;BME280;63171;50.520;30.486;2023-04-22T04:16:20;99513.50;;;12.16;53.73
45253;BME280;63171;50.520;30.486;2023-04-22T04:17:16;99513.13;;;12.20;53.78
45253;BME280;63171;50.520;30.486;2023-04-22T04:18:07;99511.97;;;12.35;53.82
45253;BME280;63171;50.520;30.486;2023-04-22T04:18:58;99517.75;;;12.52;53.63
45253;BME280;63171;50.520;30.486;2023-04-22T04:19:49;99512.50;;;12.52;53.61
45253;BME280;63171;50.520;30.486;2023-04-22T04:20:40;99516.31;;;12.48;53.71
45253;BME280;63171;50.520;30.486;2023-04-22T04:21:30;99511.13;;;12.70;53.60
45253;BME280;63171;50.520;30.486;2023-04-22T04:22:22;99519.81;;;12.82;53.48
45253;BME280;63171;50.520;30.486;2023-04-22T04:23:19;99519.81;;;12.93;53.19
45253;BME280;63171;50.520;30.486;2023-04-22T04:24:10;99513.53;;;12.95;53.28
45253;BME280;63171;50.520;30.486;2023-04-22T04:25:06;99514.59;;;13.04;53.07
45253;BME280;63171;50.520;30.486;2023-04-22T04:26:00;99518.28;;;13.13;53.08
45253;BME280;63171;50.520;30.486;2023-04-22T04:26:55;99517.91;;;13.06;52.84
45253;BME280;63171;50.520;30.486;2023-04-22T04:27:54;99520.44;;;13.08;52.79
45253;BME280;63171;50.520;30.486;2023-04-22T04:28:46;99520.56;;;13.06;52.39
45253;BME280;63171;50.520;30.486;2023-04-22T04:29:39;99528.81;;;13.13;52.35
45253;BME280;63171;50.520;30.486;2023-04-22T04:30:36;99521.38;;;13.07;52.21
45253;BME280;63171;50.520;30.486;2023-04-22T04:31:26;99528.81;;;13.13;52.37
45253;BME280;63171;50.520;30.486;2023-04-22T04:32:19;99520.56;;;13.06;52.11
45253;BME280;63171;50.520;30.486;2023-04-22T04:33:10;99522.72;;;13.01;52.11